sensor_id;sensor_type;location;lat;lon;timestamp;P1;durP1;ratioP1;P2;durP2;ratioP2
50884;SDS011;36865;-33.406;-70.534;2022-07-06T00:00:16;22.40;;;13.55;;
50884;SDS011;36865;-33.406;-70.534;2022-07-06T00:02:42;22.17;;;13.07;;
50884;SDS011;36865;-33.406;-70.534;2022-07-06T00:05:09;22.27;;;13.50;;
50884;SDS011;36865;-33.406;-70.534;2022-07-06T00:07:35;21.30;;;12.52;;
50884;SDS011;36865;-33.406;-70.534;2022-07-06T00:10:02;19.88;;;11.90;;
50884;SDS011;36865;-33.406;-70.534;2022-07-06T00:12:29;19.77;;;10.57;;
50884;SDS011;36865;-33.406;-70.534;2022-07-06T00:14:55;17.17;;;9.80;;
50884;SDS011;36865;-33.406;-70.534;2022-07-06T00:17:22;21.23;;;11.32;;
50884;SDS011;36865;-33.406;-70.534;2022-07-06T00:19:48;25.15;;;14.63;;
50884;SDS011;36865;-33.406;-70.534;2022-07-06T00:22:15;23.85;;;14.32;;
50884;SDS011;36865;-33.406;-70.534;2022-07-06T00:24:41;23.60;;;13.27;;
50884;SDS011;36865;-33.406;-70.534;2022-07-06T00:27:08;22.85;;;12.05;;
50884;SDS011;36865;-33.406;-70.534;2022-07-06T00:29:35;19.48;;;11.07;;
50884;SDS011;36865;-33.406;-70.534;2022-07-06T00:32:01;20.80;;;10.73;;
50884;SDS011;36865;-33.406;-70.534;2022-07-06T00:34:28;21.17;;;11.05;;
50884;SDS011;36865;-33.406;-70.534;2022-07-06T00:36:54;20.92;;;11.50;;
50884;SDS011;36865;-33.406;-70.534;2022-07-06T00:39:21;19.85;;;10.75;;
50884;SDS011;36865;-33.406;-70.534;2022-07-06T00:41:49;18.70;;;10.13;;
50884;SDS011;36865;-33.406;-70.534;2022-07-06T00:44:15;21.98;;;11.75;;
50884;SDS011;36865;-33.406;-70.534;2022-07-06T00:46:41;23.60;;;13.82;;
50884;SDS011;36865;-33.406;-70.534;2022-07-06T00:49:08;28.00;;;15.88;;
50884;SDS011;36865;-33.406;-70.534;2022-07-06T00:51:54;32.88;;;18.50;;
50884;SDS011;36865;-33.406;-70.534;2022-07-06T00:54:21;35.40;;;20.85;;
50884;SDS011;36865;-33.406;-70.534;2022-07-06T00:56:47;30.70;;;18.10;;
50884;SDS011;36865;-33.406;-70.534;2022-07-06T00:59:14;29.05;;;15.48;;
50884;SDS011;36865;-33.406;-70.534;2022-07-06T01:01:40;26.40;;;15.50;;
50884;SDS011;36865;-33.406;-70.534;2022-07-06T01:04:07;36.60;;;21.10;;
50884;SDS011;36865;-33.406;-70.534;2022-07-06T01:06:34;35.75;;;20.52;;
50884;SDS011;36865;-33.406;-70.534;2022-07-06T01:09:00;39.95;;;22.23;;
50884;SDS011;36865;-33.406;-70.534;2022-07-06T01:11:27;35.67;;;20.38;;
50884;SDS011;36865;-33.406;-70.534;2022-07-06T01:13:57;38.42;;;21.58;;
50884;SDS011;36865;-33.406;-70.534;2022-07-06T01:16:27;31.50;;;18.98;;
50884;SDS011;36865;-33.406;-70.534;2022-07-06T01:18:54;30.70;;;18.15;;
50884;SDS011;36865;-33.406;-70.534;2022-07-06T01:21:20;26.58;;;15.15;;
50884;SDS011;36865;-33.406;-70.534;2022-07-06T01:23:47;24.63;;;13.32;;
50884;SDS011;36865;-33.406;-70.534;2022-07-06T01:26:15;23.42;;;12.63;;
50884;SDS011;36865;-33.406;-70.534;2022-07-06T01:28:46;22.17;;;12.60;;
50884;SDS011;36865;-33.406;-70.534;2022-07-06T01:33:53;24.67;;;13.57;;
50884;SDS011;36865;-33.406;-70.534;2022-07-06T01:36:21;27.40;;;15.30;;
50884;SDS011;36865;-33.406;-70.534;2022-07-06T01:38:51;26.92;;;14.23;;
50884;SDS011;36865;-33.406;-70.534;2022-07-06T01:41:20;27.58;;;15.35;;
50884;SDS011;36865;-33.406;-70.534;2022-07-06T01:43:47;27.52;;;15.38;;
50884;SDS011;36865;-33.406;-70.534;2022-07-06T01:46:14;27.88;;;15.68;;
50884;SDS011;36865;-33.406;-70.534;2022-07-06T01:48:42;25.40;;;13.80;;
50884;SDS011;36865;-33.406;-70.534;2022-07-06T01:51:09;27.83;;;15.60;;
50884;SDS011;36865;-33.406;-70.534;2022-07-06T01:53:37;33.50;;;19.15;;
50884;SDS011;36865;-33.406;-70.534;2022-07-06T01:56:05;36.75;;;20.88;;
50884;SDS011;36865;-33.406;-70.534;2022-07-06T01:58:32;39.60;;;21.48;;
50884;SDS011;36865;-33.406;-70.534;2022-07-06T02:00:59;35.25;;;20.63;;
50884;SDS011;36865;-33.406;-70.534;2022-07-06T02:03:28;32.22;;;18.25;;
50884;SDS011;36865;-33.406;-70.534;2022-07-06T02:05:55;28.30;;;16.08;;
50884;SDS011;36865;-33.406;-70.534;2022-07-06T02:08:23;27.23;;;14.45;;
50884;SDS011;36865;-33.406;-70.534;2022-07-06T02:10:49;25.88;;;14.75;;
50884;SDS011;36865;-33.406;-70.534;2022-07-06T02:13:16;28.55;;;15.70;;
50884;SDS011;36865;-33.406;-70.534;2022-07-06T02:15:43;24.42;;;13.57;;
50884;SDS011;36865;-33.406;-70.534;2022-07-06T02:18:10;23.65;;;13.38;;
50884;SDS011;36865;-33.406;-70.534;2022-07-06T02:20:37;23.48;;;12.82;;
50884;SDS011;36865;-33.406;-70.534;2022-07-06T02:23:04;26.02;;;14.35;;
50884;SDS011;36865;-33.406;-70.534;2022-07-06T02:25:31;24.88;;;13.13;;
50884;SDS011;36865;-33.406;-70.534;2022-07-06T02:27:58;28.35;;;14.70;;
50884;SDS011;36865;-33.406;-70.534;2022-07-06T02:30:24;26.75;;;13.80;;
50884;SDS011;36865;-33.406;-70.534;2022-07-06T02:32:51;26.35;;;13.75;;
50884;SDS011;36865;-33.406;-70.534;2022-07-06T02:35:18;24.13;;;13.05;;
50884;SDS011;36865;-33.406;-70.534;2022-07-06T02:37:44;27.83;;;14.07;;
50884;SDS011;36865;-33.406;-70.534;2022-07-06T02:40:11;27.20;;;14.70;;
50884;SDS011;36865;-33.406;-70.534;2022-07-06T02:42:38;32.53;;;16.45;;
50884;SDS011;36865;-33.406;-70.534;2022-07-06T02:45:05;33.90;;;17.95;;
50884;SDS011;36865;-33.406;-70.534;2022-07-06T02:47:32;35.28;;;19.27;;
50884;SDS011;36865;-33.406;-70.534;2022-07-06T02:49:59;32.20;;;17.90;;
50884;SDS011;36865;-33.406;-70.534;2022-07-06T02:52:25;33.97;;;18.00;;
50884;SDS011;36865;-33.406;-70.534;2022-07-06T02:54:51;31.15;;;17.35;;
50884;SDS011;36865;-33.406;-70.534;2022-07-06T02:57:18;27.33;;;14.68;;
50884;SDS011;36865;-33.406;-70.534;2022-07-06T02:59:45;24.45;;;13.18;;
50884;SDS011;36865;-33.406;-70.534;2022-07-06T03:02:11;24.73;;;13.43;;
50884;SDS011;36865;-33.406;-70.534;2022-07-06T03:04:38;25.20;;;12.48;;
50884;SDS011;36865;-33.406;-70.534;2022-07-06T03:07:04;21.75;;;11.57;;
50884;SDS011;36865;-33.406;-70.534;2022-07-06T03:09:31;23.17;;;12.57;;
50884;SDS011;36865;-33.406;-70.534;2022-07-06T03:11:57;24.88;;;12.85;;
50884;SDS011;36865;-33.406;-70.534;2022-07-06T03:14:24;23.00;;;12.20;;
50884;SDS011;36865;-33.406;-70.534;2022-07-06T03:16:50;26.00;;;13.07;;
50884;SDS011;36865;-33.406;-70.534;2022-07-06T03:19:17;23.55;;;11.80;;
50884;SDS011;36865;-33.406;-70.534;2022-07-06T03:21:44;22.67;;;11.15;;
50884;SDS011;36865;-33.406;-70.534;2022-07-06T03:24:10;23.27;;;11.90;;
50884;SDS011;36865;-33.406;-70.534;2022-07-06T03:26:37;20.48;;;10.68;;
50884;SDS011;36865;-33.406;-70.534;2022-07-06T03:29:03;18.88;;;9.48;;
50884;SDS011;36865;-33.406;-70.534;2022-07-06T03:31:30;17.67;;;8.85;;
50884;SDS011;36865;-33.406;-70.534;2022-07-06T03:33:56;18.40;;;9.70;;
50884;SDS011;36865;-33.406;-70.534;2022-07-06T03:36:23;17.10;;;8.85;;
50884;SDS011;36865;-33.406;-70.534;2022-07-06T03:38:49;18.95;;;9.10;;
50884;SDS011;36865;-33.406;-70.534;2022-07-06T03:41:16;19.52;;;10.00;;
50884;SDS011;36865;-33.406;-70.534;2022-07-06T03:43:42;19.02;;;9.63;;
50884;SDS011;36865;-33.406;-70.534;2022-07-06T03:46:09;19.92;;;10.30;;
50884;SDS011;36865;-33.406;-70.534;2022-07-06T03:48:35;27.33;;;13.93;;
50884;SDS011;36865;-33.406;-70.534;2022-07-06T03:51:02;29.20;;;15.75;;
50884;SDS011;36865;-33.406;-70.534;2022-07-06T03:53:28;25.58;;;14.27;;
50884;SDS011;36865;-33.406;-70.534;2022-07-06T03:55:55;27.67;;;14.55;;
50884;SDS011;36865;-33.406;-70.534;2022-07-06T03:58:40;27.02;;;15.77;;
50884;SDS011;36865;-33.406;-70.534;2022-07-06T04:01:06;35.83;;;19.20;;
50884;SDS011;36865;-33.406;-70.534;2022-07-06T04:03:32;31.50;;;17.63;;
50884;SDS011;36865;-33.406;-70.534;2022-07-06T04:05:59;28.10;;;15.45;;
50884;SDS011;36865;-33.406;-70.534;2022-07-06T04:08:25;25.80;;;13.68;;
50884;SDS011;36865;-33.406;-70.534;2022-07-06T04:10:52;25.73;;;13.88;;
50884;SDS011;36865;-33.406;-70.534;2022-07-06T04:13:18;22.00;;;11.90;;
50884;SDS011;36865;-33.406;-70.534;2022-07-06T04:15:45;21.45;;;11.63;;
50884;SDS011;36865;-33.406;-70.534;2022-07-06T04:18:11;23.60;;;12.50;;
50884;SDS011;36865;-33.406;-70.534;2022-07-06T04:20:38;21.58;;;11.68;;
50884;SDS011;36865;-33.406;-70.534;2022-07-06T04:23:05;21.10;;;11.18;;
50884;SDS011;36865;-33.406;-70.534;2022-07-06T04:25:31;21.67;;;10.05;;
50884;SDS011;36865;-33.406;-70.534;2022-07-06T04:27:58;19.92;;;10.35;;
50884;SDS011;36865;-33.406;-70.534;2022-07-06T04:30:24;20.92;;;10.60;;
50884;SDS011;36865;-33.406;-70.534;2022-07-06T04:32:51;18.65;;;9.25;;
50884;SDS011;36865;-33.406;-70.534;2022-07-06T04:35:18;19.73;;;10.10;;
50884;SDS011;36865;-33.406;-70.534;2022-07-06T04:37:44;20.90;;;11.05;;
50884;SDS011;36865;-33.406;-70.534;2022-07-06T04:40:11;23.60;;;12.45;;
50884;SDS011;36865;-33.406;-70.534;2022-07-06T04:42:38;22.70;;;11.55;;
50884;SDS011;36865;-33.406;-70.534;2022-07-06T04:45:04;23.83;;;12.00;;
50884;SDS011;36865;-33.406;-70.534;2022-07-06T04:47:31;25.02;;;13.35;;
50884;SDS011;36865;-33.406;-70.534;2022-07-06T04:49:58;27.35;;;14.50;;
50884;SDS011;36865;-33.406;-70.534;2022-07-06T04:52:24;26.90;;;13.98;;
50884;SDS011;36865;-33.406;-70.534;2022-07-06T04:54:51;26.00;;;13.88;;
50884;SDS011;36865;-33.406;-70.534;2022-07-06T04:57:17;23.52;;;12.50;;
50884;SDS011;36865;-33.406;-70.534;2022-07-06T04:59:44;27.92;;;13.88;;
50884;SDS011;36865;-33.406;-70.534;2022-07-06T05:02:11;29.52;;;15.77;;
50884;SDS011;36865;-33.406;-70.534;2022-07-06T05:04:38;27.48;;;15.40;;
50884;SDS011;36865;-33.406;-70.534;2022-07-06T05:07:04;23.90;;;13.23;;
50884;SDS011;36865;-33.406;-70.534;2022-07-06T05:09:31;24.08;;;13.23;;
50884;SDS011;36865;-33.406;-70.534;2022-07-06T05:11:57;24.00;;;11.95;;
50884;SDS011;36865;-33.406;-70.534;2022-07-06T05:14:24;23.00;;;11.48;;
50884;SDS011;36865;-33.406;-70.534;2022-07-06T05:16:50;23.33;;;12.30;;
50884;SDS011;36865;-33.406;-70.534;2022-07-06T05:19:17;21.70;;;11.65;;
50884;SDS011;36865;-33.406;-70.534;2022-07-06T05:21:43;21.98;;;11.43;;
50884;SDS011;36865;-33.406;-70.534;2022-07-06T05:24:10;28.35;;;15.80;;
50884;SDS011;36865;-33.406;-70.534;2022-07-06T05:26:36;26.40;;;14.20;;
50884;SDS011;36865;-33.406;-70.534;2022-07-06T05:29:03;25.73;;;13.05;;
50884;SDS011;36865;-33.406;-70.534;2022-07-06T05:31:29;24.58;;;12.80;;
50884;SDS011;36865;-33.406;-70.534;2022-07-06T05:33:56;24.67;;;12.88;;
50884;SDS011;36865;-33.406;-70.534;2022-07-06T05:36:22;24.30;;;11.82;;
50884;SDS011;36865;-33.406;-70.534;2022-07-06T05:38:49;24.02;;;11.75;;
50884;SDS011;36865;-33.406;-70.534;2022-07-06T05:41:15;19.25;;;10.10;;
50884;SDS011;36865;-33.406;-70.534;2022-07-06T05:43:42;19.35;;;9.90;;
50884;SDS011;36865;-33.406;-70.534;2022-07-06T05:46:08;18.58;;;9.73;;
50884;SDS011;36865;-33.406;-70.534;2022-07-06T05:48:35;20.73;;;10.50;;
50884;SDS011;36865;-33.406;-70.534;2022-07-06T05:51:19;22.63;;;11.07;;
50884;SDS011;36865;-33.406;-70.534;2022-07-06T05:53:46;22.05;;;11.57;;
50884;SDS011;36865;-33.406;-70.534;2022-07-06T05:56:13;20.42;;;10.93;;
50884;SDS011;36865;-33.406;-70.534;2022-07-06T05:58:40;19.55;;;10.05;;
50884;SDS011;36865;-33.406;-70.534;2022-07-06T06:01:06;18.40;;;9.18;;
50884;SDS011;36865;-33.406;-70.534;2022-07-06T06:03:34;16.70;;;8.10;;
50884;SDS011;36865;-33.406;-70.534;2022-07-06T06:06:00;18.48;;;9.07;;
50884;SDS011;36865;-33.406;-70.534;2022-07-06T06:08:27;20.05;;;9.73;;
50884;SDS011;36865;-33.406;-70.534;2022-07-06T06:10:53;22.80;;;11.98;;
50884;SDS011;36865;-33.406;-70.534;2022-07-06T06:13:20;22.75;;;11.50;;
50884;SDS011;36865;-33.406;-70.534;2022-07-06T06:15:46;24.15;;;13.73;;
50884;SDS011;36865;-33.406;-70.534;2022-07-06T06:18:13;24.17;;;13.60;;
50884;SDS011;36865;-33.406;-70.534;2022-07-06T06:20:42;24.30;;;12.85;;
50884;SDS011;36865;-33.406;-70.534;2022-07-06T06:23:09;23.40;;;11.77;;
50884;SDS011;36865;-33.406;-70.534;2022-07-06T06:25:38;22.40;;;11.30;;
50884;SDS011;36865;-33.406;-70.534;2022-07-06T06:28:06;20.52;;;10.27;;
50884;SDS011;36865;-33.406;-70.534;2022-07-06T06:30:33;20.55;;;10.25;;
50884;SDS011;36865;-33.406;-70.534;2022-07-06T06:35:42;19.45;;;9.60;;
50884;SDS011;36865;-33.406;-70.534;2022-07-06T06:38:09;20.55;;;10.35;;
50884;SDS011;36865;-33.406;-70.534;2022-07-06T06:40:36;33.75;;;18.02;;
50884;SDS011;36865;-33.406;-70.534;2022-07-06T06:43:03;36.20;;;20.13;;
50884;SDS011;36865;-33.406;-70.534;2022-07-06T06:45:30;34.40;;;18.50;;
50884;SDS011;36865;-33.406;-70.534;2022-07-06T06:47:57;27.63;;;15.52;;
50884;SDS011;36865;-33.406;-70.534;2022-07-06T06:50:23;27.63;;;15.18;;
50884;SDS011;36865;-33.406;-70.534;2022-07-06T06:52:50;24.05;;;12.57;;
50884;SDS011;36865;-33.406;-70.534;2022-07-06T06:55:17;21.90;;;11.80;;
50884;SDS011;36865;-33.406;-70.534;2022-07-06T06:57:43;21.80;;;11.38;;
50884;SDS011;36865;-33.406;-70.534;2022-07-06T07:00:10;22.23;;;11.45;;
50884;SDS011;36865;-33.406;-70.534;2022-07-06T07:02:37;25.58;;;13.40;;
50884;SDS011;36865;-33.406;-70.534;2022-07-06T07:05:04;36.50;;;19.25;;
50884;SDS011;36865;-33.406;-70.534;2022-07-06T07:07:32;33.45;;;17.40;;
50884;SDS011;36865;-33.406;-70.534;2022-07-06T07:09:58;29.23;;;14.57;;
50884;SDS011;36865;-33.406;-70.534;2022-07-06T07:12:25;29.90;;;15.80;;
50884;SDS011;36865;-33.406;-70.534;2022-07-06T07:14:52;29.50;;;15.15;;
50884;SDS011;36865;-33.406;-70.534;2022-07-06T07:17:18;28.42;;;15.27;;
50884;SDS011;36865;-33.406;-70.534;2022-07-06T07:19:45;25.67;;;13.55;;
50884;SDS011;36865;-33.406;-70.534;2022-07-06T07:22:11;25.38;;;13.15;;
50884;SDS011;36865;-33.406;-70.534;2022-07-06T07:24:38;23.13;;;12.32;;
50884;SDS011;36865;-33.406;-70.534;2022-07-06T07:27:04;21.63;;;11.40;;
50884;SDS011;36865;-33.406;-70.534;2022-07-06T07:29:31;21.30;;;10.65;;
50884;SDS011;36865;-33.406;-70.534;2022-07-06T07:31:57;22.73;;;11.45;;
50884;SDS011;36865;-33.406;-70.534;2022-07-06T07:34:24;23.63;;;12.35;;
50884;SDS011;36865;-33.406;-70.534;2022-07-06T07:36:50;25.05;;;12.52;;
50884;SDS011;36865;-33.406;-70.534;2022-07-06T07:39:17;23.80;;;11.20;;
50884;SDS011;36865;-33.406;-70.534;2022-07-06T07:41:43;22.23;;;12.07;;
50884;SDS011;36865;-33.406;-70.534;2022-07-06T07:44:10;22.83;;;11.85;;
50884;SDS011;36865;-33.406;-70.534;2022-07-06T07:46:36;20.30;;;10.48;;
50884;SDS011;36865;-33.406;-70.534;2022-07-06T07:49:03;22.10;;;11.23;;
50884;SDS011;36865;-33.406;-70.534;2022-07-06T07:51:30;21.40;;;10.55;;
50884;SDS011;36865;-33.406;-70.534;2022-07-06T07:53:56;22.33;;;11.35;;
50884;SDS011;36865;-33.406;-70.534;2022-07-06T07:56:23;22.00;;;11.45;;
50884;SDS011;36865;-33.406;-70.534;2022-07-06T07:58:49;27.55;;;13.52;;
50884;SDS011;36865;-33.406;-70.534;2022-07-06T08:01:16;28.60;;;14.65;;
50884;SDS011;36865;-33.406;-70.534;2022-07-06T08:03:42;26.98;;;13.52;;
50884;SDS011;36865;-33.406;-70.534;2022-07-06T08:06:09;24.00;;;12.02;;
50884;SDS011;36865;-33.406;-70.534;2022-07-06T08:08:35;20.13;;;10.90;;
50884;SDS011;36865;-33.406;-70.534;2022-07-06T08:11:02;21.08;;;10.90;;
50884;SDS011;36865;-33.406;-70.534;2022-07-06T08:13:28;18.88;;;9.35;;
50884;SDS011;36865;-33.406;-70.534;2022-07-06T08:15:55;18.60;;;8.95;;
50884;SDS011;36865;-33.406;-70.534;2022-07-06T08:18:21;16.73;;;8.40;;
50884;SDS011;36865;-33.406;-70.534;2022-07-06T08:20:48;15.80;;;7.72;;
50884;SDS011;36865;-33.406;-70.534;2022-07-06T08:23:14;15.52;;;7.63;;
50884;SDS011;36865;-33.406;-70.534;2022-07-06T08:25:41;15.30;;;7.20;;
50884;SDS011;36865;-33.406;-70.534;2022-07-06T08:28:07;19.38;;;9.50;;
50884;SDS011;36865;-33.406;-70.534;2022-07-06T08:30:34;16.48;;;7.53;;
50884;SDS011;36865;-33.406;-70.534;2022-07-06T08:33:01;17.33;;;8.02;;
50884;SDS011;36865;-33.406;-70.534;2022-07-06T08:35:27;16.50;;;7.50;;
50884;SDS011;36865;-33.406;-70.534;2022-07-06T08:37:54;15.65;;;7.35;;
50884;SDS011;36865;-33.406;-70.534;2022-07-06T08:40:20;15.13;;;7.30;;
50884;SDS011;36865;-33.406;-70.534;2022-07-06T08:42:48;17.83;;;9.23;;
50884;SDS011;36865;-33.406;-70.534;2022-07-06T08:47:45;23.17;;;11.68;;
50884;SDS011;36865;-33.406;-70.534;2022-07-06T08:50:15;23.58;;;12.63;;
50884;SDS011;36865;-33.406;-70.534;2022-07-06T08:52:41;22.98;;;12.02;;
50884;SDS011;36865;-33.406;-70.534;2022-07-06T08:55:08;25.55;;;13.93;;
50884;SDS011;36865;-33.406;-70.534;2022-07-06T08:57:35;26.33;;;14.68;;
50884;SDS011;36865;-33.406;-70.534;2022-07-06T09:00:02;30.40;;;16.20;;
50884;SDS011;36865;-33.406;-70.534;2022-07-06T09:02:29;25.90;;;13.63;;
50884;SDS011;36865;-33.406;-70.534;2022-07-06T09:04:55;23.30;;;12.57;;
50884;SDS011;36865;-33.406;-70.534;2022-07-06T09:07:28;25.40;;;13.10;;
50884;SDS011;36865;-33.406;-70.534;2022-07-06T09:09:55;23.23;;;12.35;;
50884;SDS011;36865;-33.406;-70.534;2022-07-06T09:12:23;28.33;;;14.00;;
50884;SDS011;36865;-33.406;-70.534;2022-07-06T09:14:56;27.35;;;15.30;;
50884;SDS011;36865;-33.406;-70.534;2022-07-06T09:17:29;31.50;;;16.93;;
50884;SDS011;36865;-33.406;-70.534;2022-07-06T09:19:56;31.95;;;17.33;;
50884;SDS011;36865;-33.406;-70.534;2022-07-06T09:22:29;35.55;;;19.25;;
50884;SDS011;36865;-33.406;-70.534;2022-07-06T09:27:40;35.50;;;19.40;;
50884;SDS011;36865;-33.406;-70.534;2022-07-06T09:30:10;33.47;;;18.23;;
50884;SDS011;36865;-33.406;-70.534;2022-07-06T09:32:41;34.35;;;18.05;;
50884;SDS011;36865;-33.406;-70.534;2022-07-06T09:35:22;32.17;;;17.90;;
50884;SDS011;36865;-33.406;-70.534;2022-07-06T09:37:59;34.35;;;19.13;;
50884;SDS011;36865;-33.406;-70.534;2022-07-06T09:40:25;40.08;;;20.00;;
50884;SDS011;36865;-33.406;-70.534;2022-07-06T09:43:06;34.30;;;18.60;;
50884;SDS011;36865;-33.406;-70.534;2022-07-06T09:45:56;34.75;;;18.55;;
50884;SDS011;36865;-33.406;-70.534;2022-07-06T09:48:24;34.30;;;18.08;;
50884;SDS011;36865;-33.406;-70.534;2022-07-06T09:50:53;29.13;;;15.40;;
50884;SDS011;36865;-33.406;-70.534;2022-07-06T09:53:22;28.92;;;15.38;;
50884;SDS011;36865;-33.406;-70.534;2022-07-06T09:55:56;28.08;;;14.75;;
50884;SDS011;36865;-33.406;-70.534;2022-07-06T09:58:27;25.55;;;13.05;;
50884;SDS011;36865;-33.406;-70.534;2022-07-06T10:00:53;24.02;;;12.63;;
50884;SDS011;36865;-33.406;-70.534;2022-07-06T10:03:20;23.08;;;11.82;;
50884;SDS011;36865;-33.406;-70.534;2022-07-06T10:05:47;28.73;;;14.70;;
50884;SDS011;36865;-33.406;-70.534;2022-07-06T10:08:15;29.00;;;14.68;;
50884;SDS011;36865;-33.406;-70.534;2022-07-06T10:10:42;28.45;;;14.95;;
50884;SDS011;36865;-33.406;-70.534;2022-07-06T10:13:10;25.35;;;13.80;;
50884;SDS011;36865;-33.406;-70.534;2022-07-06T10:15:38;23.55;;;12.23;;
50884;SDS011;36865;-33.406;-70.534;2022-07-06T10:18:06;20.85;;;10.25;;
50884;SDS011;36865;-33.406;-70.534;2022-07-06T10:20:35;19.63;;;10.27;;
50884;SDS011;36865;-33.406;-70.534;2022-07-06T10:23:04;18.58;;;9.20;;
50884;SDS011;36865;-33.406;-70.534;2022-07-06T10:25:32;18.75;;;9.40;;
50884;SDS011;36865;-33.406;-70.534;2022-07-06T10:27:59;19.75;;;9.88;;
50884;SDS011;36865;-33.406;-70.534;2022-07-06T10:30:26;19.23;;;10.32;;
50884;SDS011;36865;-33.406;-70.534;2022-07-06T10:32:54;18.10;;;9.25;;
50884;SDS011;36865;-33.406;-70.534;2022-07-06T10:35:22;16.90;;;8.40;;
50884;SDS011;36865;-33.406;-70.534;2022-07-06T10:38:05;21.42;;;10.80;;
50884;SDS011;36865;-33.406;-70.534;2022-07-06T10:40:35;20.08;;;10.50;;
50884;SDS011;36865;-33.406;-70.534;2022-07-06T10:43:23;17.52;;;9.25;;
50884;SDS011;36865;-33.406;-70.534;2022-07-06T10:46:10;17.55;;;8.90;;
50884;SDS011;36865;-33.406;-70.534;2022-07-06T10:48:43;15.43;;;7.90;;
50884;SDS011;36865;-33.406;-70.534;2022-07-06T10:51:10;21.23;;;11.40;;
50884;SDS011;36865;-33.406;-70.534;2022-07-06T10:53:39;25.13;;;13.75;;
50884;SDS011;36865;-33.406;-70.534;2022-07-06T10:56:10;30.73;;;16.23;;
50884;SDS011;36865;-33.406;-70.534;2022-07-06T10:58:46;33.10;;;19.25;;
50884;SDS011;36865;-33.406;-70.534;2022-07-06T11:01:14;31.23;;;17.58;;
50884;SDS011;36865;-33.406;-70.534;2022-07-06T11:08:48;24.88;;;14.50;;
50884;SDS011;36865;-33.406;-70.534;2022-07-06T11:11:23;24.80;;;13.73;;
50884;SDS011;36865;-33.406;-70.534;2022-07-06T11:14:06;20.88;;;11.80;;
50884;SDS011;36865;-33.406;-70.534;2022-07-06T11:16:36;24.38;;;13.20;;
50884;SDS011;36865;-33.406;-70.534;2022-07-06T11:19:14;21.77;;;12.50;;
50884;SDS011;36865;-33.406;-70.534;2022-07-06T11:24:26;25.73;;;14.25;;
50884;SDS011;36865;-33.406;-70.534;2022-07-06T11:26:54;23.60;;;12.52;;
50884;SDS011;36865;-33.406;-70.534;2022-07-06T11:29:23;25.42;;;13.93;;
50884;SDS011;36865;-33.406;-70.534;2022-07-06T11:31:51;23.30;;;13.40;;
50884;SDS011;36865;-33.406;-70.534;2022-07-06T11:34:20;26.50;;;14.63;;
50884;SDS011;36865;-33.406;-70.534;2022-07-06T11:36:48;23.98;;;13.80;;
50884;SDS011;36865;-33.406;-70.534;2022-07-06T11:39:20;25.10;;;13.52;;
50884;SDS011;36865;-33.406;-70.534;2022-07-06T11:41:47;29.75;;;17.10;;
50884;SDS011;36865;-33.406;-70.534;2022-07-06T11:44:13;35.88;;;19.75;;
50884;SDS011;36865;-33.406;-70.534;2022-07-06T11:46:40;29.88;;;17.10;;
50884;SDS011;36865;-33.406;-70.534;2022-07-06T11:49:07;30.52;;;17.35;;
50884;SDS011;36865;-33.406;-70.534;2022-07-06T11:51:35;31.10;;;17.95;;
50884;SDS011;36865;-33.406;-70.534;2022-07-06T11:54:08;33.25;;;18.10;;
50884;SDS011;36865;-33.406;-70.534;2022-07-06T11:56:56;31.27;;;16.85;;
50884;SDS011;36865;-33.406;-70.534;2022-07-06T11:59:32;29.35;;;16.35;;
50884;SDS011;36865;-33.406;-70.534;2022-07-06T12:02:06;29.95;;;17.30;;
50884;SDS011;36865;-33.406;-70.534;2022-07-06T12:04:34;33.38;;;18.45;;
50884;SDS011;36865;-33.406;-70.534;2022-07-06T12:07:02;30.80;;;17.25;;
50884;SDS011;36865;-33.406;-70.534;2022-07-06T12:09:34;30.65;;;16.15;;
50884;SDS011;36865;-33.406;-70.534;2022-07-06T12:12:02;30.35;;;16.80;;
50884;SDS011;36865;-33.406;-70.534;2022-07-06T12:14:30;32.22;;;17.98;;
50884;SDS011;36865;-33.406;-70.534;2022-07-06T12:17:02;33.75;;;18.63;;
50884;SDS011;36865;-33.406;-70.534;2022-07-06T12:19:31;31.50;;;16.42;;
50884;SDS011;36865;-33.406;-70.534;2022-07-06T12:21:58;31.23;;;16.90;;
50884;SDS011;36865;-33.406;-70.534;2022-07-06T12:24:27;29.35;;;16.70;;
50884;SDS011;36865;-33.406;-70.534;2022-07-06T12:26:56;37.22;;;19.38;;
50884;SDS011;36865;-33.406;-70.534;2022-07-06T12:29:23;31.25;;;16.45;;
50884;SDS011;36865;-33.406;-70.534;2022-07-06T12:31:54;27.38;;;14.90;;
50884;SDS011;36865;-33.406;-70.534;2022-07-06T12:36:50;32.80;;;18.02;;
50884;SDS011;36865;-33.406;-70.534;2022-07-06T12:39:17;33.90;;;18.42;;
50884;SDS011;36865;-33.406;-70.534;2022-07-06T12:41:47;35.13;;;19.23;;
50884;SDS011;36865;-33.406;-70.534;2022-07-06T12:44:21;42.08;;;21.55;;
50884;SDS011;36865;-33.406;-70.534;2022-07-06T12:46:50;36.75;;;19.63;;
50884;SDS011;36865;-33.406;-70.534;2022-07-06T12:49:38;33.13;;;17.73;;
50884;SDS011;36865;-33.406;-70.534;2022-07-06T12:52:09;28.48;;;15.27;;
50884;SDS011;36865;-33.406;-70.534;2022-07-06T12:54:46;31.80;;;17.38;;
50884;SDS011;36865;-33.406;-70.534;2022-07-06T12:57:15;29.00;;;15.40;;
50884;SDS011;36865;-33.406;-70.534;2022-07-06T12:59:47;35.47;;;18.63;;
50884;SDS011;36865;-33.406;-70.534;2022-07-06T13:02:19;34.65;;;18.00;;
50884;SDS011;36865;-33.406;-70.534;2022-07-06T13:05:21;29.60;;;14.82;;
50884;SDS011;36865;-33.406;-70.534;2022-07-06T13:07:47;23.88;;;12.00;;
50884;SDS011;36865;-33.406;-70.534;2022-07-06T13:10:14;21.90;;;11.50;;
50884;SDS011;36865;-33.406;-70.534;2022-07-06T13:12:42;27.10;;;13.15;;
50884;SDS011;36865;-33.406;-70.534;2022-07-06T13:15:09;26.73;;;14.15;;
50884;SDS011;36865;-33.406;-70.534;2022-07-06T13:17:37;24.48;;;11.55;;
50884;SDS011;36865;-33.406;-70.534;2022-07-06T13:20:04;27.33;;;14.55;;
50884;SDS011;36865;-33.406;-70.534;2022-07-06T13:22:34;36.05;;;19.65;;
50884;SDS011;36865;-33.406;-70.534;2022-07-06T13:25:00;42.95;;;23.55;;
50884;SDS011;36865;-33.406;-70.534;2022-07-06T13:27:27;40.22;;;23.45;;
50884;SDS011;36865;-33.406;-70.534;2022-07-06T13:29:53;33.42;;;20.58;;
50884;SDS011;36865;-33.406;-70.534;2022-07-06T13:32:20;30.90;;;18.48;;
50884;SDS011;36865;-33.406;-70.534;2022-07-06T13:34:47;29.92;;;17.10;;
50884;SDS011;36865;-33.406;-70.534;2022-07-06T13:37:13;38.30;;;21.30;;
50884;SDS011;36865;-33.406;-70.534;2022-07-06T13:39:40;42.10;;;22.83;;
50884;SDS011;36865;-33.406;-70.534;2022-07-06T13:42:06;29.98;;;18.00;;
50884;SDS011;36865;-33.406;-70.534;2022-07-06T13:44:34;33.97;;;19.63;;
50884;SDS011;36865;-33.406;-70.534;2022-07-06T13:47:01;30.35;;;18.05;;
50884;SDS011;36865;-33.406;-70.534;2022-07-06T13:49:28;35.22;;;19.80;;
50884;SDS011;36865;-33.406;-70.534;2022-07-06T13:51:54;28.52;;;17.45;;
50884;SDS011;36865;-33.406;-70.534;2022-07-06T13:54:27;29.92;;;17.58;;
50884;SDS011;36865;-33.406;-70.534;2022-07-06T13:56:54;25.60;;;15.68;;
50884;SDS011;36865;-33.406;-70.534;2022-07-06T13:59:20;25.63;;;14.90;;
50884;SDS011;36865;-33.406;-70.534;2022-07-06T14:01:47;26.85;;;15.55;;
50884;SDS011;36865;-33.406;-70.534;2022-07-06T14:04:13;39.92;;;20.98;;
50884;SDS011;36865;-33.406;-70.534;2022-07-06T14:06:40;34.00;;;19.65;;
50884;SDS011;36865;-33.406;-70.534;2022-07-06T14:09:06;33.22;;;20.20;;
50884;SDS011;36865;-33.406;-70.534;2022-07-06T14:11:33;28.65;;;18.13;;